createdAt,value
2022-12-26T00:00:40.028Z,16.17
2022-12-26T00:03:25.614Z,21.10
2022-12-26T00:06:17.730Z,19.98
2022-12-26T00:09:05.024Z,21.05
2022-12-26T00:11:50.323Z,20.55
2022-12-26T00:14:35.651Z,16.60
2022-12-26T00:17:20.782Z,25.58
2022-12-26T00:20:06.320Z,14.75
2022-12-26T00:22:51.241Z,19.40
2022-12-26T00:25:40.179Z,18.63
2022-12-26T00:28:25.048Z,19.88
2022-12-26T00:31:16.383Z,19.75
2022-12-26T00:34:01.470Z,18.75
2022-12-26T00:36:46.884Z,18.52
2022-12-26T00:39:31.872Z,21.15
2022-12-26T00:42:17.009Z,21.30
2022-12-26T00:45:02.037Z,19.45
2022-12-26T00:47:47.057Z,19.88
2022-12-26T00:50:34.900Z,25.50
2022-12-26T00:53:21.489Z,22.10
2022-12-26T00:56:07.270Z,19.65
2022-12-26T00:58:52.565Z,14.80
2022-12-26T01:01:37.980Z,17.05
2022-12-26T01:04:23.236Z,19.33
2022-12-26T01:07:08.053Z,18.10
2022-12-26T01:09:52.942Z,19.55
2022-12-26T01:12:38.011Z,30.25
2022-12-26T01:15:23.247Z,21.58
2022-12-26T01:18:08.266Z,21.60
2022-12-26T01:21:01.844Z,18.38
2022-12-26T01:23:46.696Z,21.58
2022-12-26T01:26:31.660Z,23.75
2022-12-26T01:29:16.645Z,19.60
2022-12-26T01:32:01.998Z,22.35
2022-12-26T01:34:47.453Z,22.33
2022-12-26T01:37:32.659Z,25.98
2022-12-26T01:40:18.000Z,18.17
2022-12-26T01:43:03.149Z,18.80
2022-12-26T01:45:50.878Z,23.92
2022-12-26T01:48:36.066Z,19.75
2022-12-26T01:51:25.773Z,28.73
2022-12-26T01:54:38.593Z,12.05
2022-12-26T01:57:30.701Z,22.55
2022-12-26T02:00:16.559Z,18.30
2022-12-26T02:03:20.275Z,22.38
2022-12-26T02:06:05.894Z,17.52
2022-12-26T02:08:51.069Z,20.02
2022-12-26T02:11:45.141Z,21.25
2022-12-26T02:14:31.514Z,17.33
2022-12-26T02:17:17.101Z,19.83
2022-12-26T02:20:20.516Z,19.20
2022-12-26T02:23:24.320Z,18.52
2022-12-26T02:26:21.306Z,22.50
2022-12-26T02:29:12.343Z,23.55
2022-12-26T02:32:21.612Z,17.13
2022-12-26T02:35:23.565Z,24.00
2022-12-26T02:38:29.193Z,29.88
2022-12-26T02:41:17.283Z,22.67
2022-12-26T02:45:04.639Z,19.70
2022-12-26T02:48:05.017Z,28.17
2022-12-26T02:51:30.354Z,16.90
2022-12-26T02:55:02.281Z,23.15
2022-12-26T02:58:21.393Z,18.23
2022-12-26T03:01:35.651Z,16.45
2022-12-26T03:04:41.763Z,23.98
2022-12-26T03:07:52.980Z,24.13
2022-12-26T03:10:57.614Z,27.48
2022-12-26T03:13:45.683Z,21.38
2022-12-26T03:16:49.976Z,23.77
2022-12-26T03:19:37.474Z,26.38
2022-12-26T03:22:31.459Z,24.73
2022-12-26T03:25:45.829Z,21.67
2022-12-26T03:28:31.108Z,28.65
2022-12-26T03:31:16.622Z,22.35
2022-12-26T03:34:19.031Z,23.15
2022-12-26T03:37:20.920Z,27.23
2022-12-26T03:40:42.240Z,27.85
2022-12-26T03:44:23.640Z,23.55
2022-12-26T03:47:30.302Z,26.13
2022-12-26T03:50:53.975Z,26.83
2022-12-26T03:54:10.238Z,19.25
2022-12-26T03:57:20.208Z,20.73
2022-12-26T04:03:32.483Z,21.75
2022-12-26T04:06:41.788Z,20.30
2022-12-26T04:09:53.148Z,19.40
2022-12-26T04:13:02.006Z,18.33
2022-12-26T04:16:21.881Z,22.47
2022-12-26T04:19:26.332Z,13.75
2022-12-26T04:22:40.271Z,18.60
2022-12-26T04:25:51.658Z,18.48
2022-12-26T04:28:55.620Z,18.88
2022-12-26T04:32:09.579Z,16.70
2022-12-26T04:35:22.811Z,16.95
2022-12-26T04:38:29.666Z,14.13
2022-12-26T04:41:35.570Z,13.20
2022-12-26T04:44:24.339Z,17.17
2022-12-26T04:47:10.554Z,20.33
2022-12-26T04:50:14.932Z,22.48
2022-12-26T04:53:00.812Z,18.60
2022-12-26T04:55:46.291Z,20.17
2022-12-26T04:58:31.278Z,11.88
2022-12-26T05:01:35.096Z,21.67
2022-12-26T05:04:38.980Z,6.80
2022-12-26T05:07:52.828Z,5.10
2022-12-26T05:10:37.985Z,4.90
2022-12-26T05:13:23.211Z,3.67
2022-12-26T05:16:27.206Z,2.80
2022-12-26T05:19:33.599Z,1.55
2022-12-26T05:22:38.093Z,5.43
2022-12-26T05:25:45.838Z,2.53
2022-12-26T05:28:43.571Z,2.38
2022-12-26T05:31:34.627Z,1.27
2022-12-26T05:34:21.405Z,3.10
2022-12-26T05:37:06.568Z,2.67
2022-12-26T05:39:51.845Z,1.15
2022-12-26T05:42:37.150Z,2.40
2022-12-26T05:45:22.471Z,4.22
2022-12-26T05:48:07.691Z,2.58
2022-12-26T05:50:53.017Z,2.38
2022-12-26T05:53:38.202Z,4.13
2022-12-26T05:56:23.500Z,2.60
2022-12-26T05:59:09.425Z,3.55
2022-12-26T06:01:54.767Z,1.67
2022-12-26T06:04:40.078Z,4.00
2022-12-26T06:07:26.545Z,3.22
2022-12-26T06:10:12.102Z,3.30
2022-12-26T06:12:57.469Z,3.65
2022-12-26T06:15:42.591Z,1.70
2022-12-26T06:18:27.608Z,3.28
2022-12-26T06:21:17.963Z,2.55
2022-12-26T06:24:03.431Z,2.97
2022-12-26T06:26:49.730Z,0.73
2022-12-26T06:29:34.860Z,1.80
2022-12-26T06:32:20.079Z,0.60
2022-12-26T06:35:06.007Z,0.47
2022-12-26T06:37:50.861Z,0.65
2022-12-26T06:40:40.007Z,3.05
2022-12-26T06:43:26.419Z,1.05
2022-12-26T06:46:21.256Z,0.98
2022-12-26T06:49:06.599Z,1.45
2022-12-26T06:51:52.265Z,1.42
2022-12-26T06:54:37.568Z,1.85
2022-12-26T06:57:22.766Z,1.75
2022-12-26T07:00:08.443Z,3.80
2022-12-26T07:02:53.653Z,1.60
2022-12-26T07:05:39.182Z,1.33
2022-12-26T07:08:24.426Z,2.70
2022-12-26T07:11:14.758Z,4.30
2022-12-26T07:14:00.136Z,3.30
2022-12-26T07:16:45.726Z,3.75
2022-12-26T07:19:30.825Z,3.88
2022-12-26T07:22:15.993Z,4.00
2022-12-26T07:25:00.795Z,6.63
2022-12-26T07:27:45.687Z,7.00
2022-12-26T07:30:30.525Z,4.82
2022-12-26T07:33:16.312Z,3.38
2022-12-26T07:36:03.699Z,4.68
2022-12-26T07:38:48.601Z,2.63
2022-12-26T07:41:52.508Z,2.72
2022-12-26T07:44:39.288Z,3.33
2022-12-26T07:47:24.226Z,3.58
2022-12-26T07:50:09.840Z,3.83
2022-12-26T07:52:55.190Z,3.10
2022-12-26T07:55:40.355Z,3.97
2022-12-26T07:58:25.884Z,1.70
2022-12-26T08:01:11.237Z,3.33
2022-12-26T08:03:56.919Z,3.55
2022-12-26T08:06:42.071Z,1.80
2022-12-26T08:09:27.291Z,8.18
2022-12-26T08:12:13.587Z,2.95
2022-12-26T08:14:58.651Z,4.40
2022-12-26T08:17:49.998Z,5.20
2022-12-26T08:20:34.948Z,3.65
2022-12-26T08:23:20.163Z,2.60
2022-12-26T08:26:11.112Z,2.90
2022-12-26T08:28:57.172Z,5.65
2022-12-26T08:31:42.412Z,3.03
2022-12-26T08:34:33.662Z,6.78
2022-12-26T08:37:18.930Z,4.55
2022-12-26T08:40:04.471Z,5.85
2022-12-26T08:43:11.754Z,4.82
2022-12-26T08:45:59.764Z,4.05
2022-12-26T08:48:45.558Z,6.22
2022-12-26T08:51:30.563Z,4.93
2022-12-26T08:54:15.534Z,6.15
2022-12-26T08:57:00.855Z,5.03
2022-12-26T08:59:46.421Z,3.00
2022-12-26T09:02:31.561Z,7.30
2022-12-26T09:05:16.883Z,4.72
2022-12-26T09:08:02.232Z,3.30
2022-12-26T09:10:47.326Z,4.93
2022-12-26T09:13:33.360Z,3.30
2022-12-26T09:16:24.293Z,8.95
2022-12-26T09:19:14.522Z,7.85
2022-12-26T09:22:18.344Z,6.53
2022-12-26T09:25:03.765Z,8.60
2022-12-26T09:27:54.237Z,6.00
2022-12-26T09:30:44.974Z,9.93
2022-12-26T09:33:38.802Z,5.20
2022-12-26T09:36:30.308Z,8.48
2022-12-26T09:39:15.420Z,4.20
2022-12-26T09:42:06.652Z,3.63
2022-12-26T09:45:25.615Z,8.52
2022-12-26T09:48:34.281Z,4.35
2022-12-26T09:51:19.735Z,5.25
2022-12-26T09:54:07.105Z,6.72
2022-12-26T09:57:02.392Z,7.00
2022-12-26T09:59:56.565Z,2.60
2022-12-26T10:02:42.472Z,5.13
2022-12-26T10:05:41.756Z,2.45
2022-12-26T10:08:32.729Z,3.17
2022-12-26T10:11:35.787Z,8.77
2022-12-26T10:14:52.975Z,4.20
2022-12-26T10:17:50.466Z,6.95
2022-12-26T10:20:44.722Z,5.25
2022-12-26T10:23:43.535Z,4.28
2022-12-26T10:26:37.353Z,5.60
2022-12-26T10:29:27.817Z,4.78
2022-12-26T10:32:37.942Z,3.90
2022-12-26T10:35:37.424Z,8.60
2022-12-26T10:38:42.644Z,5.43
2022-12-26T10:41:41.718Z,2.15
2022-12-26T10:44:28.107Z,2.80
2022-12-26T10:47:22.232Z,5.57
2022-12-26T10:50:16.221Z,4.35
2022-12-26T10:53:05.489Z,3.47
2022-12-26T10:55:50.534Z,6.43
2022-12-26T10:58:37.743Z,4.97
2022-12-26T11:01:28.768Z,5.00
2022-12-26T11:04:31.171Z,5.07
2022-12-26T11:07:26.556Z,3.35
2022-12-26T11:10:19.876Z,1.80
2022-12-26T11:13:09.037Z,5.13
2022-12-26T11:15:54.742Z,4.57
2022-12-26T11:18:48.386Z,3.42
2022-12-26T11:21:33.793Z,3.72
2022-12-26T11:24:20.300Z,4.63
2022-12-26T11:27:20.362Z,3.95
2022-12-26T11:30:14.894Z,3.78
2022-12-26T11:33:14.087Z,2.28
2022-12-26T11:36:03.447Z,3.22
2022-12-26T11:38:59.963Z,4.57
2022-12-26T11:41:49.036Z,3.15
2022-12-26T11:44:36.621Z,5.00
2022-12-26T11:47:25.889Z,5.47
2022-12-26T11:50:21.018Z,8.70
2022-12-26T11:53:07.148Z,4.78
2022-12-26T11:56:04.483Z,5.10
2022-12-26T11:58:49.813Z,5.70
2022-12-26T12:01:35.126Z,5.03
2022-12-26T12:04:20.534Z,5.30
2022-12-26T12:07:43.189Z,5.80
2022-12-26T12:10:48.864Z,3.95
2022-12-26T12:13:58.640Z,7.53
2022-12-26T12:19:38.859Z,5.40
2022-12-26T12:22:29.950Z,11.18
2022-12-26T12:25:39.948Z,5.05
2022-12-26T12:28:40.337Z,8.65
2022-12-26T12:31:34.660Z,7.35
2022-12-26T12:34:33.141Z,6.72
2022-12-26T12:37:36.619Z,11.88
2022-12-26T12:40:49.941Z,7.57
2022-12-26T12:43:49.036Z,7.18
2022-12-26T12:46:54.190Z,8.10
2022-12-26T12:50:13.498Z,4.63
2022-12-26T12:53:29.428Z,7.17
2022-12-26T12:56:34.587Z,7.55
2022-12-26T12:59:35.215Z,6.60
2022-12-26T13:02:28.099Z,10.80
2022-12-26T13:05:39.007Z,4.95
2022-12-26T13:08:35.223Z,6.18
2022-12-26T13:11:35.468Z,11.27
2022-12-26T13:14:25.013Z,4.22
2022-12-26T13:17:15.824Z,2.60
2022-12-26T13:20:27.835Z,6.70
2022-12-26T13:23:56.543Z,4.78
2022-12-26T13:27:03.337Z,6.75
2022-12-26T13:29:49.541Z,5.30
2022-12-26T13:32:34.672Z,3.42
2022-12-26T13:35:50.918Z,7.68
2022-12-26T13:38:57.716Z,7.32
2022-12-26T13:42:08.154Z,4.88
2022-12-26T13:44:53.995Z,2.85
2022-12-26T13:47:39.651Z,5.45
2022-12-26T13:50:55.692Z,4.70
2022-12-26T13:53:41.866Z,5.32
2022-12-26T13:56:27.032Z,5.22
2022-12-26T13:59:27.089Z,3.67
2022-12-26T14:03:15.987Z,4.60
2022-12-26T14:06:16.334Z,2.78
2022-12-26T14:09:16.565Z,11.02
2022-12-26T14:12:23.045Z,2.45
2022-12-26T14:15:16.512Z,5.63
2022-12-26T14:18:23.663Z,3.33
2022-12-26T14:21:25.790Z,6.30
2022-12-26T14:24:46.429Z,6.88
2022-12-26T14:27:44.943Z,4.13
2022-12-26T14:30:51.836Z,2.88
2022-12-26T14:33:51.834Z,5.47
2022-12-26T14:39:56.491Z,3.33
2022-12-26T14:43:12.737Z,5.03
2022-12-26T14:45:58.346Z,1.88
2022-12-26T14:48:48.492Z,3.17
2022-12-26T14:54:22.315Z,2.95
2022-12-26T14:57:36.116Z,4.22
2022-12-26T15:00:21.002Z,4.18
2022-12-26T15:03:30.920Z,8.70
2022-12-26T15:06:19.394Z,7.55
2022-12-26T15:09:34.069Z,3.22
2022-12-26T15:12:37.990Z,6.80
2022-12-26T15:15:31.432Z,6.68
2022-12-26T15:18:54.413Z,5.47
2022-12-26T15:22:08.197Z,4.43
2022-12-26T15:28:29.110Z,4.07
2022-12-26T15:31:25.013Z,4.82
2022-12-26T15:34:31.243Z,6.30
2022-12-26T15:37:32.554Z,6.10
2022-12-26T15:40:23.519Z,10.63
2022-12-26T15:43:27.045Z,11.07
2022-12-26T15:46:20.874Z,7.07
2022-12-26T15:49:45.088Z,6.10
2022-12-26T15:52:47.935Z,5.53
2022-12-26T15:56:02.116Z,8.73
2022-12-26T15:59:09.366Z,7.63
2022-12-26T16:01:55.127Z,10.68
2022-12-26T16:04:46.760Z,6.80
2022-12-26T16:07:45.892Z,5.82
2022-12-26T16:10:34.281Z,8.40
2022-12-26T16:13:25.452Z,7.53
2022-12-26T16:16:10.674Z,11.60
2022-12-26T16:18:56.113Z,7.75
2022-12-26T16:21:59.807Z,9.70
2022-12-26T16:24:47.165Z,6.38
2022-12-26T16:27:32.217Z,6.13
2022-12-26T16:30:23.745Z,5.10
2022-12-26T16:33:08.958Z,4.82
2022-12-26T16:36:00.705Z,9.80
2022-12-26T16:38:46.265Z,9.40
2022-12-26T16:41:32.770Z,7.57
2022-12-26T16:44:38.108Z,7.75
2022-12-26T16:47:24.048Z,9.57
2022-12-26T16:50:16.931Z,6.88
2022-12-26T16:53:42.535Z,5.63
2022-12-26T16:56:34.511Z,9.68
2022-12-26T16:59:25.085Z,7.30
2022-12-26T17:02:26.774Z,6.13
2022-12-26T17:05:22.837Z,7.28
2022-12-26T17:08:14.872Z,8.13
2022-12-26T17:11:00.169Z,9.27
2022-12-26T17:13:52.986Z,5.63
2022-12-26T17:16:38.029Z,5.43
2022-12-26T17:19:31.614Z,5.32
2022-12-26T17:22:34.503Z,7.70
2022-12-26T17:25:29.557Z,7.95
2022-12-26T17:28:15.209Z,7.05
2022-12-26T17:31:18.376Z,5.43
2022-12-26T17:34:22.685Z,8.90
2022-12-26T17:37:20.489Z,4.80
2022-12-26T17:40:20.118Z,8.73
2022-12-26T17:43:33.777Z,7.70
2022-12-26T17:46:19.163Z,4.82
2022-12-26T17:49:04.282Z,9.02
2022-12-26T17:51:58.242Z,6.20
2022-12-26T17:54:49.199Z,7.00
2022-12-26T17:57:34.211Z,4.82
2022-12-26T18:00:22.568Z,8.90
2022-12-26T18:03:07.794Z,4.70
2022-12-26T18:05:56.355Z,8.20
2022-12-26T18:08:41.536Z,10.95
2022-12-26T18:11:26.591Z,7.35
2022-12-26T18:14:13.937Z,10.50
2022-12-26T18:16:59.281Z,5.68
2022-12-26T18:19:45.432Z,8.40
2022-12-26T18:22:30.465Z,4.22
2022-12-26T18:25:17.331Z,4.60
2022-12-26T18:28:02.660Z,8.13
2022-12-26T18:30:48.000Z,6.00
2022-12-26T18:33:33.277Z,8.40
2022-12-26T18:36:19.378Z,5.25
2022-12-26T18:39:05.616Z,6.05
2022-12-26T18:41:50.777Z,6.60
2022-12-26T18:44:36.029Z,6.80
2022-12-26T18:47:21.912Z,8.40
2022-12-26T18:50:13.981Z,11.50
2022-12-26T18:52:59.096Z,7.88
2022-12-26T18:55:44.310Z,11.52
2022-12-26T18:58:29.308Z,6.53
2022-12-26T19:01:17.178Z,7.10
2022-12-26T19:04:02.308Z,7.97
2022-12-26T19:06:47.441Z,6.35
2022-12-26T19:09:32.356Z,10.30
2022-12-26T19:12:17.482Z,6.70
2022-12-26T19:15:03.364Z,8.65
2022-12-26T19:17:48.741Z,5.45
2022-12-26T19:20:36.632Z,7.95
2022-12-26T19:23:26.005Z,5.05
2022-12-26T19:26:12.646Z,5.63
2022-12-26T19:28:57.884Z,5.32
2022-12-26T19:31:43.270Z,8.85
2022-12-26T19:34:28.976Z,5.95
2022-12-26T19:37:14.162Z,8.23
2022-12-26T19:39:59.391Z,6.43
2022-12-26T19:42:44.874Z,9.15
2022-12-26T19:45:29.876Z,6.28
2022-12-26T19:48:15.123Z,5.30
2022-12-26T19:51:02.464Z,8.05
2022-12-26T19:53:48.614Z,7.32
2022-12-26T19:56:34.130Z,11.23
2022-12-26T19:59:19.208Z,5.63
2022-12-26T20:02:05.043Z,7.50
2022-12-26T20:04:50.369Z,5.13
2022-12-26T20:07:35.927Z,10.80
2022-12-26T20:10:21.003Z,9.20
2022-12-26T20:13:06.140Z,6.10
2022-12-26T20:15:51.156Z,7.65
2022-12-26T20:18:37.187Z,13.05
2022-12-26T20:21:23.777Z,7.88
2022-12-26T20:24:11.064Z,10.35
2022-12-26T20:26:56.226Z,5.30
2022-12-26T20:29:41.477Z,4.82
2022-12-26T20:32:26.665Z,4.30
2022-12-26T20:35:11.544Z,6.63
2022-12-26T20:37:56.468Z,6.95
2022-12-26T20:40:46.784Z,12.20
2022-12-26T20:43:35.247Z,7.43
2022-12-26T20:46:34.299Z,2.90
2022-12-26T20:49:19.871Z,6.55
2022-12-26T20:52:05.260Z,6.22
2022-12-26T20:54:50.571Z,6.43
2022-12-26T20:57:35.812Z,8.38
2022-12-26T21:00:21.157Z,3.97
2022-12-26T21:03:06.432Z,6.05
2022-12-26T21:05:51.973Z,3.15
2022-12-26T21:08:38.512Z,5.22
2022-12-26T21:11:26.227Z,8.30
2022-12-26T21:14:14.284Z,4.43
2022-12-26T21:16:59.486Z,10.88
2022-12-26T21:19:44.929Z,6.88
2022-12-26T21:22:29.953Z,9.43
2022-12-26T21:25:15.228Z,8.80
2022-12-26T21:28:00.378Z,5.80
2022-12-26T21:30:45.790Z,8.32
2022-12-26T21:33:30.950Z,7.75
2022-12-26T21:36:17.151Z,10.00
2022-12-26T21:39:07.769Z,14.98
2022-12-26T21:41:52.639Z,6.25
2022-12-26T21:44:38.061Z,8.63
2022-12-26T21:47:22.938Z,10.88
2022-12-26T21:50:08.296Z,10.68
2022-12-26T21:52:53.304Z,11.00
2022-12-26T21:55:38.724Z,9.82
2022-12-26T21:58:24.026Z,5.60
2022-12-26T22:01:17.030Z,8.23
2022-12-26T22:04:20.372Z,11.43
2022-12-26T22:07:05.153Z,10.38
2022-12-26T22:09:50.116Z,8.00
2022-12-26T22:12:53.830Z,5.20
2022-12-26T22:16:05.355Z,8.57
2022-12-26T22:18:50.771Z,9.50
2022-12-26T22:21:36.349Z,8.57
2022-12-26T22:24:21.900Z,10.50
2022-12-26T22:27:06.852Z,4.22
2022-12-26T22:29:51.981Z,8.63
2022-12-26T22:32:36.900Z,13.95
2022-12-26T22:35:22.514Z,8.90
2022-12-26T22:38:07.323Z,11.13
2022-12-26T22:40:55.029Z,9.88
2022-12-26T22:43:40.655Z,6.03
2022-12-26T22:46:25.676Z,7.78
2022-12-26T22:49:10.998Z,7.18
2022-12-26T22:51:56.012Z,5.55
2022-12-26T22:54:43.559Z,5.45
2022-12-26T22:57:28.465Z,4.57
2022-12-26T23:00:14.062Z,7.47
2022-12-26T23:02:59.361Z,9.07
2022-12-26T23:05:44.891Z,8.40
2022-12-26T23:08:30.319Z,7.95
2022-12-26T23:11:15.869Z,7.72
2022-12-26T23:14:01.291Z,10.27
2022-12-26T23:16:58.104Z,5.78
2022-12-26T23:20:06.750Z,7.75
2022-12-26T23:22:52.306Z,14.50
2022-12-26T23:25:38.906Z,4.88
2022-12-26T23:28:42.616Z,10.55
2022-12-26T23:31:27.800Z,6.40
2022-12-26T23:34:12.811Z,5.28
2022-12-26T23:36:58.261Z,8.77
2022-12-26T23:39:43.616Z,9.45
2022-12-26T23:42:28.553Z,6.70
2022-12-26T23:45:14.652Z,10.43
2022-12-26T23:47:59.800Z,16.35
2022-12-26T23:50:44.979Z,7.85
2022-12-26T23:53:30.579Z,6.55
2022-12-26T23:56:15.463Z,7.78
2022-12-26T23:59:00.648Z,6.53
